Time;durP1;ratioP1;P1;durP2;ratioP2;P2;SDS_P1;SDS_P2;PMS_P1;PMS_P2;Temp;Humidity;BMP_temperature;BMP_pressure;BME280_temperature;BME280_humidity;BME280_pressure;Samples;Min_cycle;Max_cycle;Signal;HPM_P1;HPM_P2
2022/06/26 00:01:36;;;;;;;2.12;1.92;;;;;;;20.62;53.34;99521.19;7766390;32;40043;-75
2022/06/26 00:05:53;;;;;;;4.22;2.08;;;;;;;20.32;54.67;99523.31;7766587;32;39857;-75
2022/06/26 00:10:09;;;;;;;4.40;2.10;;;;;;;20.27;55.09;99524.34;7766425;32;37990;-77
2022/06/26 00:14:25;;;;;;;2.92;2.22;;;;;;;20.49;54.12;99522.31;7766557;32;36937;-76
2022/06/26 00:18:42;;;;;;;5.40;2.42;;;;;;;20.37;54.32;99525.03;7766459;32;39174;-76
2022/06/26 00:22:58;;;;;;;5.43;2.17;;;;;;;20.29;54.51;99520.44;7777955;32;39978;-75
2022/06/26 00:27:14;;;;;;;1.98;1.62;;;;;;;20.22;54.63;99523.78;7793368;32;38705;-74
2022/06/26 00:31:30;;;;;;;2.53;1.80;;;;;;;20.28;54.16;99533.44;7793438;32;36932;-74
2022/06/26 00:35:46;;;;;;;4.12;1.83;;;;;;;20.25;54.00;99540.50;7793326;32;39277;-75
2022/06/26 00:40:02;;;;;;;3.03;1.90;;;;;;;20.17;54.22;99543.34;7793408;32;39984;-75
2022/06/26 00:44:23;;;;;;;2.28;1.83;;;;;;;19.69;55.66;99549.13;7784810;32;38703;-75
2022/06/26 00:48:39;;;;;;;3.78;2.00;;;;;;;19.87;55.22;99558.13;7765552;32;36674;-77
2022/06/26 00:52:56;;;;;;;4.47;2.03;;;;;;;19.66;55.60;99568.38;7765895;32;39360;-77
2022/06/26 00:57:15;;;;;;;3.45;2.12;;;;;;;19.80;55.25;99555.12;7765909;32;40779;-75
2022/06/26 01:01:33;;;;;;;7.25;3.30;;;;;;;19.83;55.62;99548.91;7765414;32;37722;-75
2022/06/26 01:05:49;;;;;;;4.62;2.62;;;;;;;19.92;55.80;99564.59;7765848;32;37757;-75
2022/06/26 01:10:06;;;;;;;3.62;2.42;;;;;;;19.98;55.80;99572.34;7765843;32;39158;-73
2022/06/26 01:14:22;;;;;;;2.53;2.03;;;;;;;19.88;56.39;99570.81;7772715;32;39906;-75
2022/06/26 01:18:38;;;;;;;3.53;2.40;;;;;;;19.99;55.70;99565.69;7792725;32;38708;-74
2022/06/26 01:23:03;;;;;;;2.37;1.90;;;;;;;19.78;56.42;99581.47;7792816;32;37002;-75
2022/06/26 01:27:19;;;;;;;2.40;2.12;;;;;;;19.99;55.55;99570.38;7792819;32;40038;-74
2022/06/26 01:31:36;;;;;;;4.93;2.05;;;;;;;19.97;54.92;99575.44;7792661;32;40062;-75
2022/06/26 01:35:52;;;;;;;5.03;2.20;;;;;;;19.59;56.02;99579.16;7792489;32;38797;-75
2022/06/26 01:40:10;;;;;;;4.40;2.45;;;;;;;19.65;55.87;99591.66;7792947;32;35176;-75
2022/06/26 01:44:26;;;;;;;4.00;2.25;;;;;;;19.82;55.58;99579.69;8020105;26;39978;-76
2022/06/26 01:48:42;;;;;;;2.80;2.08;;;;;;;19.68;56.03;99582.69;7791079;32;41454;-76
2022/06/26 01:52:58;;;;;;;4.35;2.50;;;;;;;19.62;56.17;99587.59;7792277;32;37891;-76
2022/06/26 01:57:14;;;;;;;3.33;2.25;;;;;;;19.71;55.80;99590.28;7792460;32;37048;-76
2022/06/26 02:01:31;;;;;;;2.65;2.00;;;;;;;19.57;56.16;99595.28;7792410;32;40453;-76
2022/06/26 02:05:48;;;;;;;4.00;2.17;;;;;;;19.48;56.12;99598.91;7792388;32;40876;-75
2022/06/26 02:14:40;;;;;;;3.05;2.30;;;;;;;19.69;56.32;99612.75;7792368;32;36902;-75
2022/06/26 02:18:57;;;;;;;5.07;2.40;;;;;;;19.69;56.38;99625.78;7777946;32;39231;-75
2022/06/26 02:23:14;;;;;;;4.97;2.80;;;;;;;19.60;56.92;99625.03;7791973;32;42313;-76
2022/06/26 02:27:30;;;;;;;6.57;2.53;;;;;;;19.70;56.86;99627.41;7791842;32;38057;-76
2022/06/26 02:31:47;;;;;;;3.03;2.20;;;;;;;19.66;57.20;99634.72;7791980;32;36966;-75
2022/06/26 02:36:05;;;;;;;4.82;2.22;;;;;;;19.52;57.41;99641.34;7791871;32;40013;-76
2022/06/26 02:40:22;;;;;;;5.20;2.67;;;;;;;19.60;57.31;99636.91;7791878;32;39956;-76
2022/06/26 02:44:38;;;;;;;6.00;2.55;;;;;;;19.44;58.80;99644.97;7778857;32;38719;-76
2022/06/26 02:48:54;;;;;;;3.72;2.33;;;;;;;19.59;58.99;99654.66;7750658;32;36816;-75
2022/06/26 02:53:10;;;;;;;3.30;2.33;;;;;;;19.59;58.68;99651.06;7764530;32;39050;-77
2022/06/26 02:57:27;;;;;;;4.03;2.50;;;;;;;19.54;58.23;99654.03;7764422;32;39594;-76
2022/06/26 03:01:43;;;;;;;3.75;2.22;;;;;;;19.88;56.89;99667.63;7768048;32;37954;-76
2022/06/26 03:05:59;;;;;;;2.65;2.10;;;;;;;19.46;58.08;99681.37;7791289;32;37477;-74
2022/06/26 03:10:15;;;;;;;4.80;2.35;;;;;;;19.73;58.18;99684.81;7783780;32;39897;-75
2022/06/26 03:14:33;;;;;;;2.72;2.30;;;;;;;19.68;57.97;99677.50;7764045;32;40814;-75
2022/06/26 03:18:49;;;;;;;3.80;2.53;;;;;;;19.76;57.76;99673.09;7763797;32;37957;-75
2022/06/26 03:23:06;;;;;;;3.20;2.15;;;;;;;20.23;56.73;99670.12;7778282;32;37079;-74
2022/06/26 03:27:22;;;;;;;2.37;1.95;;;;;;;20.50;56.02;99669.88;7790729;32;40102;-75
2022/06/26 03:31:39;;;;;;;4.05;2.60;;;;;;;20.68;55.64;99681.59;7785109;32;40692;-74
2022/06/26 03:35:55;;;;;;;7.18;2.53;;;;;;;20.72;56.29;99677.00;7762324;32;37801;-74
2022/06/26 03:40:11;;;;;;;4.72;2.20;;;;;;;20.71;56.49;99676.16;7760043;32;37545;-74
2022/06/26 03:44:29;;;;;;;3.28;2.37;;;;;;;21.06;55.17;99677.72;7782389;32;38985;-74
2022/06/26 03:48:45;;;;;;;3.20;2.33;;;;;;;21.11;54.78;99671.97;7786863;32;40487;-75
2022/06/26 03:53:01;;;;;;;6.12;2.50;;;;;;;21.17;54.46;99673.34;7763659;32;37796;-74
2022/06/26 03:57:18;;;;;;;5.15;2.55;;;;;;;21.30;54.07;99676.94;7790254;32;36883;-76
2022/06/26 04:01:39;;;;;;;5.93;2.37;;;;;;;21.12;54.85;99687.44;7772930;32;39714;-75
2022/06/26 04:05:55;;;;;;;2.62;2.08;;;;;;;20.99;55.48;99692.97;7787288;32;40007;-75
2022/06/26 04:10:11;;;;;;;6.85;2.75;;;;;;;20.95;55.83;99694.78;7789649;32;37893;-76
2022/06/26 04:14:27;;;;;;;6.50;2.62;;;;;;;20.85;56.44;99683.34;7766987;32;37654;-74
2022/06/26 04:18:43;;;;;;;3.67;2.80;;;;;;;21.17;55.46;99674.16;7762545;32;39989;-76
2022/06/26 04:23:01;;;;;;;3.87;2.72;;;;;;;21.24;55.78;99690.22;7775600;32;40851;-76
2022/06/26 04:27:18;;;;;;;5.55;3.58;;;;;;;21.17;56.24;99695.53;7793139;32;38692;-75
2022/06/26 04:31:34;;;;;;;6.00;3.50;;;;;;;21.04;57.24;99693.91;7790064;32;37676;-75
2022/06/26 04:35:50;;;;;;;5.30;3.35;;;;;;;20.92;58.09;99692.75;7785262;32;39271;-74
2022/06/26 04:40:07;;;;;;;4.25;3.05;;;;;;;21.05;58.11;99704.63;7764827;32;39979;-73
2022/06/26 04:44:24;;;;;;;5.35;3.50;;;;;;;21.00;58.79;99702.88;7767989;32;37900;-73
2022/06/26 04:48:40;;;;;;;4.57;3.20;;;;;;;21.10;58.72;99698.88;7764730;32;36912;-74
